sensor_id;sensor_type;location;lat;lon;timestamp;temperature;humidity
19966;DHT22;10144;50.874;4.762;2023-04-25T00:02:17;8.10;99.90
19966;DHT22;10144;50.874;4.762;2023-04-25T00:04:44;8.10;99.90
19966;DHT22;10144;50.874;4.762;2023-04-25T00:07:13;8.20;99.90
19966;DHT22;10144;50.874;4.762;2023-04-25T00:09:41;8.20;99.90
19966;DHT22;10144;50.874;4.762;2023-04-25T00:12:10;8.30;99.90
19966;DHT22;10144;50.874;4.762;2023-04-25T00:14:36;8.30;99.90
19966;DHT22;10144;50.874;4.762;2023-04-25T00:17:02;8.10;99.90
19966;DHT22;10144;50.874;4.762;2023-04-25T00:19:29;8.00;99.90
19966;DHT22;10144;50.874;4.762;2023-04-25T00:22:30;8.00;99.90
19966;DHT22;10144;50.874;4.762;2023-04-25T00:24:57;8.20;99.90
19966;DHT22;10144;50.874;4.762;2023-04-25T00:27:27;8.20;99.90
19966;DHT22;10144;50.874;4.762;2023-04-25T00:29:56;8.20;99.90
19966;DHT22;10144;50.874;4.762;2023-04-25T00:32:35;8.20;99.90
19966;DHT22;10144;50.874;4.762;2023-04-25T00:35:04;8.20;99.90
19966;DHT22;10144;50.874;4.762;2023-04-25T00:37:31;8.20;99.90
19966;DHT22;10144;50.874;4.762;2023-04-25T00:40:06;8.30;99.90
19966;DHT22;10144;50.874;4.762;2023-04-25T00:42:49;8.40;99.90
19966;DHT22;10144;50.874;4.762;2023-04-25T00:45:21;8.50;99.90
19966;DHT22;10144;50.874;4.762;2023-04-25T00:47:49;8.50;99.90
19966;DHT22;10144;50.874;4.762;2023-04-25T00:50:18;8.30;99.90
19966;DHT22;10144;50.874;4.762;2023-04-25T00:52:47;8.20;99.90
19966;DHT22;10144;50.874;4.762;2023-04-25T00:55:16;8.30;99.90
19966;DHT22;10144;50.874;4.762;2023-04-25T00:57:42;8.40;99.90
19966;DHT22;10144;50.874;4.762;2023-04-25T01:00:14;8.40;99.90
19966;DHT22;10144;50.874;4.762;2023-04-25T01:02:44;8.30;99.90
19966;DHT22;10144;50.874;4.762;2023-04-25T01:08:32;8.20;99.90
19966;DHT22;10144;50.874;4.762;2023-04-25T01:11:00;8.20;99.90
19966;DHT22;10144;50.874;4.762;2023-04-25T01:13:34;8.00;99.90
19966;DHT22;10144;50.874;4.762;2023-04-25T01:16:32;8.00;99.90
19966;DHT22;10144;50.874;4.762;2023-04-25T01:18:59;7.90;99.90
19966;DHT22;10144;50.874;4.762;2023-04-25T01:21:26;7.80;99.90
19966;DHT22;10144;50.874;4.762;2023-04-25T01:23:54;7.90;99.90
19966;DHT22;10144;50.874;4.762;2023-04-25T01:26:23;7.80;99.90
19966;DHT22;10144;50.874;4.762;2023-04-25T01:29:07;7.90;99.90
19966;DHT22;10144;50.874;4.762;2023-04-25T01:31:37;7.90;99.90
19966;DHT22;10144;50.874;4.762;2023-04-25T01:34:09;7.90;99.90
19966;DHT22;10144;50.874;4.762;2023-04-25T01:36:36;7.90;99.90
19966;DHT22;10144;50.874;4.762;2023-04-25T01:39:30;7.90;99.90
19966;DHT22;10144;50.874;4.762;2023-04-25T01:42:09;7.90;99.90
19966;DHT22;10144;50.874;4.762;2023-04-25T01:44:37;7.70;99.90
19966;DHT22;10144;50.874;4.762;2023-04-25T01:47:02;7.80;99.90
19966;DHT22;10144;50.874;4.762;2023-04-25T01:49:35;7.80;99.90
19966;DHT22;10144;50.874;4.762;2023-04-25T01:52:07;7.80;99.90
19966;DHT22;10144;50.874;4.762;2023-04-25T01:55:04;7.90;99.90
19966;DHT22;10144;50.874;4.762;2023-04-25T01:57:35;7.90;99.90
19966;DHT22;10144;50.874;4.762;2023-04-25T02:00:31;7.70;99.90
19966;DHT22;10144;50.874;4.762;2023-04-25T02:03:05;7.70;99.90
19966;DHT22;10144;50.874;4.762;2023-04-25T02:05:48;7.70;99.90
19966;DHT22;10144;50.874;4.762;2023-04-25T02:08:25;7.60;99.90
19966;DHT22;10144;50.874;4.762;2023-04-25T02:10:58;7.60;99.90
19966;DHT22;10144;50.874;4.762;2023-04-25T02:13:27;7.70;99.90
19966;DHT22;10144;50.874;4.762;2023-04-25T02:16:29;7.60;99.90
19966;DHT22;10144;50.874;4.762;2023-04-25T02:18:59;7.50;99.90
19966;DHT22;10144;50.874;4.762;2023-04-25T02:21:37;7.40;99.90
19966;DHT22;10144;50.874;4.762;2023-04-25T02:24:07;7.50;99.90
19966;DHT22;10144;50.874;4.762;2023-04-25T02:26:36;7.50;99.90
19966;DHT22;10144;50.874;4.762;2023-04-25T02:29:21;7.50;99.90
19966;DHT22;10144;50.874;4.762;2023-04-25T02:31:54;7.40;99.90
19966;DHT22;10144;50.874;4.762;2023-04-25T02:34:23;7.40;99.90
19966;DHT22;10144;50.874;4.762;2023-04-25T02:36:51;7.50;99.90
19966;DHT22;10144;50.874;4.762;2023-04-25T02:39:20;7.40;99.90
19966;DHT22;10144;50.874;4.762;2023-04-25T02:41:51;7.40;99.90
19966;DHT22;10144;50.874;4.762;2023-04-25T02:44:47;7.40;99.90
19966;DHT22;10144;50.874;4.762;2023-04-25T02:47:40;7.50;99.90
19966;DHT22;10144;50.874;4.762;2023-04-25T02:50:12;7.50;99.90
19966;DHT22;10144;50.874;4.762;2023-04-25T02:52:43;7.50;99.90
19966;DHT22;10144;50.874;4.762;2023-04-25T02:55:14;7.50;99.90
19966;DHT22;10144;50.874;4.762;2023-04-25T02:58:18;7.50;99.90
19966;DHT22;10144;50.874;4.762;2023-04-25T03:00:46;7.50;99.90
19966;DHT22;10144;50.874;4.762;2023-04-25T03:03:14;7.60;99.90
19966;DHT22;10144;50.874;4.762;2023-04-25T03:05:43;7.50;99.90
19966;DHT22;10144;50.874;4.762;2023-04-25T03:08:12;7.50;99.90
19966;DHT22;10144;50.874;4.762;2023-04-25T03:14:04;7.40;99.90
19966;DHT22;10144;50.874;4.762;2023-04-25T03:16:33;7.40;99.90
19966;DHT22;10144;50.874;4.762;2023-04-25T03:19:02;7.40;99.90
19966;DHT22;10144;50.874;4.762;2023-04-25T03:21:31;7.50;99.90
19966;DHT22;10144;50.874;4.762;2023-04-25T03:24:04;7.40;99.90
19966;DHT22;10144;50.874;4.762;2023-04-25T03:26:31;7.40;99.90
19966;DHT22;10144;50.874;4.762;2023-04-25T03:29:06;7.40;99.90
19966;DHT22;10144;50.874;4.762;2023-04-25T03:31:31;7.30;99.90
19966;DHT22;10144;50.874;4.762;2023-04-25T03:33:57;7.30;99.90
19966;DHT22;10144;50.874;4.762;2023-04-25T03:36:26;7.30;99.90
19966;DHT22;10144;50.874;4.762;2023-04-25T03:38:53;7.30;99.90
19966;DHT22;10144;50.874;4.762;2023-04-25T03:41:19;7.40;99.90
19966;DHT22;10144;50.874;4.762;2023-04-25T03:43:51;7.40;99.90
19966;DHT22;10144;50.874;4.762;2023-04-25T03:46:20;7.30;99.90
19966;DHT22;10144;50.874;4.762;2023-04-25T03:48:56;7.30;99.90
19966;DHT22;10144;50.874;4.762;2023-04-25T03:51:25;7.30;99.90
19966;DHT22;10144;50.874;4.762;2023-04-25T03:53:54;7.20;99.90
19966;DHT22;10144;50.874;4.762;2023-04-25T03:56:23;7.10;99.90
19966;DHT22;10144;50.874;4.762;2023-04-25T03:58:52;7.10;99.90
19966;DHT22;10144;50.874;4.762;2023-04-25T04:01:20;6.90;99.90
19966;DHT22;10144;50.874;4.762;2023-04-25T04:03:46;6.80;99.90
19966;DHT22;10144;50.874;4.762;2023-04-25T04:06:17;6.80;99.90
19966;DHT22;10144;50.874;4.762;2023-04-25T04:08:46;6.90;99.90
19966;DHT22;10144;50.874;4.762;2023-04-25T04:11:18;6.90;99.90
19966;DHT22;10144;50.874;4.762;2023-04-25T04:13:43;6.80;99.90
19966;DHT22;10144;50.874;4.762;2023-04-25T04:16:15;6.70;99.90
19966;DHT22;10144;50.874;4.762;2023-04-25T04:18:45;6.70;99.90
19966;DHT22;10144;50.874;4.762;2023-04-25T04:21:12;6.60;99.90
19966;DHT22;10144;50.874;4.762;2023-04-25T04:23:44;6.70;99.90
19966;DHT22;10144;50.874;4.762;2023-04-25T04:26:13;6.70;99.90
19966;DHT22;10144;50.874;4.762;2023-04-25T04:28:45;6.80;99.90
19966;DHT22;10144;50.874;4.762;2023-04-25T04:31:12;6.80;99.90
19966;DHT22;10144;50.874;4.762;2023-04-25T04:33:42;6.70;99.90
19966;DHT22;10144;50.874;4.762;2023-04-25T04:36:17;6.70;99.90
19966;DHT22;10144;50.874;4.762;2023-04-25T04:38:49;6.70;99.90
19966;DHT22;10144;50.874;4.762;2023-04-25T04:44:20;6.90;99.90
19966;DHT22;10144;50.874;4.762;2023-04-25T04:46:57;6.80;99.90
19966;DHT22;10144;50.874;4.762;2023-04-25T04:49:26;6.90;99.90
19966;DHT22;10144;50.874;4.762;2023-04-25T04:51:54;6.90;99.90
19966;DHT22;10144;50.874;4.762;2023-04-25T04:54:22;7.00;99.90
19966;DHT22;10144;50.874;4.762;2023-04-25T04:56:51;7.10;99.90
19966;DHT22;10144;50.874;4.762;2023-04-25T04:59:20;7.20;99.90
19966;DHT22;10144;50.874;4.762;2023-04-25T05:01:48;7.20;99.90
19966;DHT22;10144;50.874;4.762;2023-04-25T05:04:15;7.20;99.90
19966;DHT22;10144;50.874;4.762;2023-04-25T05:06:44;7.00;99.90
19966;DHT22;10144;50.874;4.762;2023-04-25T05:09:11;7.00;99.90
19966;DHT22;10144;50.874;4.762;2023-04-25T05:11:37;7.00;99.90
19966;DHT22;10144;50.874;4.762;2023-04-25T05:14:03;7.20;99.90
19966;DHT22;10144;50.874;4.762;2023-04-25T05:16:29;7.10;99.90
19966;DHT22;10144;50.874;4.762;2023-04-25T05:18:55;7.10;99.90
19966;DHT22;10144;50.874;4.762;2023-04-25T05:21:21;7.00;99.90
19966;DHT22;10144;50.874;4.762;2023-04-25T05:23:46;7.10;99.90
19966;DHT22;10144;50.874;4.762;2023-04-25T05:26:13;7.00;99.90
19966;DHT22;10144;50.874;4.762;2023-04-25T05:28:43;7.10;99.90
19966;DHT22;10144;50.874;4.762;2023-04-25T05:31:12;7.10;99.90
19966;DHT22;10144;50.874;4.762;2023-04-25T05:33:39;7.00;99.90
19966;DHT22;10144;50.874;4.762;2023-04-25T05:36:06;7.10;99.90
19966;DHT22;10144;50.874;4.762;2023-04-25T05:38:31;7.00;99.90
19966;DHT22;10144;50.874;4.762;2023-04-25T05:40:57;7.00;99.90
19966;DHT22;10144;50.874;4.762;2023-04-25T05:43:24;7.00;99.90
19966;DHT22;10144;50.874;4.762;2023-04-25T05:45:50;7.00;99.90
19966;DHT22;10144;50.874;4.762;2023-04-25T05:48:15;6.90;99.90
19966;DHT22;10144;50.874;4.762;2023-04-25T05:50:42;7.10;99.90
19966;DHT22;10144;50.874;4.762;2023-04-25T05:53:08;7.00;99.90
19966;DHT22;10144;50.874;4.762;2023-04-25T05:55:37;7.10;99.90
19966;DHT22;10144;50.874;4.762;2023-04-25T05:58:06;7.20;99.90
19966;DHT22;10144;50.874;4.762;2023-04-25T06:00:35;7.20;99.90
19966;DHT22;10144;50.874;4.762;2023-04-25T06:03:04;7.30;99.90
19966;DHT22;10144;50.874;4.762;2023-04-25T06:05:37;7.20;99.90
19966;DHT22;10144;50.874;4.762;2023-04-25T06:08:09;7.20;99.90
19966;DHT22;10144;50.874;4.762;2023-04-25T06:10:38;7.20;99.90
19966;DHT22;10144;50.874;4.762;2023-04-25T06:13:19;7.30;99.90
19966;DHT22;10144;50.874;4.762;2023-04-25T06:15:53;7.10;99.90
19966;DHT22;10144;50.874;4.762;2023-04-25T06:18:21;7.20;99.90
19966;DHT22;10144;50.874;4.762;2023-04-25T06:20:50;7.30;99.90
19966;DHT22;10144;50.874;4.762;2023-04-25T06:23:19;7.40;99.90
19966;DHT22;10144;50.874;4.762;2023-04-25T06:25:46;7.50;99.90
19966;DHT22;10144;50.874;4.762;2023-04-25T06:28:11;7.70;99.90
19966;DHT22;10144;50.874;4.762;2023-04-25T06:30:37;7.90;99.90
19966;DHT22;10144;50.874;4.762;2023-04-25T06:33:03;7.90;99.90
19966;DHT22;10144;50.874;4.762;2023-04-25T06:35:28;7.80;99.90
19966;DHT22;10144;50.874;4.762;2023-04-25T06:37:56;7.90;99.90
19966;DHT22;10144;50.874;4.762;2023-04-25T06:40:23;8.00;99.90
19966;DHT22;10144;50.874;4.762;2023-04-25T06:42:49;8.00;99.90
19966;DHT22;10144;50.874;4.762;2023-04-25T06:45:15;8.10;99.90
19966;DHT22;10144;50.874;4.762;2023-04-25T06:47:42;8.10;99.90
19966;DHT22;10144;50.874;4.762;2023-04-25T06:50:08;8.10;99.90
19966;DHT22;10144;50.874;4.762;2023-04-25T06:52:35;8.30;99.90
19966;DHT22;10144;50.874;4.762;2023-04-25T06:55:02;8.50;99.90
19966;DHT22;10144;50.874;4.762;2023-04-25T06:57:28;8.50;99.90
19966;DHT22;10144;50.874;4.762;2023-04-25T06:59:54;8.50;99.90
19966;DHT22;10144;50.874;4.762;2023-04-25T07:02:20;8.60;99.90
19966;DHT22;10144;50.874;4.762;2023-04-25T07:04:48;8.70;99.90
19966;DHT22;10144;50.874;4.762;2023-04-25T07:07:14;8.60;99.90
19966;DHT22;10144;50.874;4.762;2023-04-25T07:09:40;8.70;99.90
19966;DHT22;10144;50.874;4.762;2023-04-25T07:12:07;8.70;99.90
19966;DHT22;10144;50.874;4.762;2023-04-25T07:14:32;8.70;99.90
19966;DHT22;10144;50.874;4.762;2023-04-25T07:16:58;8.80;99.90
19966;DHT22;10144;50.874;4.762;2023-04-25T07:19:23;8.80;99.90
19966;DHT22;10144;50.874;4.762;2023-04-25T07:21:52;8.90;99.90
19966;DHT22;10144;50.874;4.762;2023-04-25T07:24:18;8.90;99.90
19966;DHT22;10144;50.874;4.762;2023-04-25T07:26:43;9.10;99.90
19966;DHT22;10144;50.874;4.762;2023-04-25T07:29:10;9.10;99.90
19966;DHT22;10144;50.874;4.762;2023-04-25T07:31:37;9.20;99.90
19966;DHT22;10144;50.874;4.762;2023-04-25T07:34:05;8.90;99.90
19966;DHT22;10144;50.874;4.762;2023-04-25T07:36:32;9.10;99.90
19966;DHT22;10144;50.874;4.762;2023-04-25T07:38:59;9.40;99.90
19966;DHT22;10144;50.874;4.762;2023-04-25T07:41:24;9.50;99.90
19966;DHT22;10144;50.874;4.762;2023-04-25T07:43:51;9.60;99.90
19966;DHT22;10144;50.874;4.762;2023-04-25T07:46:17;9.90;99.90
19966;DHT22;10144;50.874;4.762;2023-04-25T07:48:44;10.00;99.90
19966;DHT22;10144;50.874;4.762;2023-04-25T07:51:09;9.90;99.90
19966;DHT22;10144;50.874;4.762;2023-04-25T07:53:38;9.90;99.90
19966;DHT22;10144;50.874;4.762;2023-04-25T07:56:05;9.90;99.90
19966;DHT22;10144;50.874;4.762;2023-04-25T07:58:30;10.10;99.90
19966;DHT22;10144;50.874;4.762;2023-04-25T08:00:57;10.60;99.90
19966;DHT22;10144;50.874;4.762;2023-04-25T08:03:23;10.60;99.90
19966;DHT22;10144;50.874;4.762;2023-04-25T08:05:49;10.30;99.90
19966;DHT22;10144;50.874;4.762;2023-04-25T08:08:16;10.30;99.90
19966;DHT22;10144;50.874;4.762;2023-04-25T08:10:42;10.00;99.90
19966;DHT22;10144;50.874;4.762;2023-04-25T08:13:08;9.90;99.90
19966;DHT22;10144;50.874;4.762;2023-04-25T08:15:34;9.80;99.90
19966;DHT22;10144;50.874;4.762;2023-04-25T08:18:00;9.70;99.90
19966;DHT22;10144;50.874;4.762;2023-04-25T08:20:27;9.70;99.90
19966;DHT22;10144;50.874;4.762;2023-04-25T08:22:54;9.40;99.90
19966;DHT22;10144;50.874;4.762;2023-04-25T08:25:20;9.40;99.90
19966;DHT22;10144;50.874;4.762;2023-04-25T08:27:47;9.30;99.90
19966;DHT22;10144;50.874;4.762;2023-04-25T08:30:12;9.10;99.90
19966;DHT22;10144;50.874;4.762;2023-04-25T08:32:40;8.90;99.90
19966;DHT22;10144;50.874;4.762;2023-04-25T08:35:06;8.80;99.90
19966;DHT22;10144;50.874;4.762;2023-04-25T08:37:32;8.80;99.90
19966;DHT22;10144;50.874;4.762;2023-04-25T08:39:57;8.70;99.90
19966;DHT22;10144;50.874;4.762;2023-04-25T08:42:24;8.50;99.90
19966;DHT22;10144;50.874;4.762;2023-04-25T08:44:53;8.40;99.90
19966;DHT22;10144;50.874;4.762;2023-04-25T08:47:22;8.30;99.90
19966;DHT22;10144;50.874;4.762;2023-04-25T08:49:48;8.40;99.90
19966;DHT22;10144;50.874;4.762;2023-04-25T08:52:17;8.40;99.90
19966;DHT22;10144;50.874;4.762;2023-04-25T08:54:48;8.40;99.90
19966;DHT22;10144;50.874;4.762;2023-04-25T08:57:17;8.50;99.90
19966;DHT22;10144;50.874;4.762;2023-04-25T08:59:46;8.70;99.90
19966;DHT22;10144;50.874;4.762;2023-04-25T09:02:12;9.00;99.90
19966;DHT22;10144;50.874;4.762;2023-04-25T09:04:43;9.30;99.90
19966;DHT22;10144;50.874;4.762;2023-04-25T09:07:10;9.70;99.90
19966;DHT22;10144;50.874;4.762;2023-04-25T09:09:35;9.80;99.90
19966;DHT22;10144;50.874;4.762;2023-04-25T09:12:01;10.40;99.90
19966;DHT22;10144;50.874;4.762;2023-04-25T09:14:28;11.10;99.90
19966;DHT22;10144;50.874;4.762;2023-04-25T09:19:31;16.00;99.90
19966;DHT22;10144;50.874;4.762;2023-04-25T09:21:59;18.80;99.90
19966;DHT22;10144;50.874;4.762;2023-04-25T09:24:47;20.00;99.90
19966;DHT22;10144;50.874;4.762;2023-04-25T09:27:19;20.80;99.90
19966;DHT22;10144;50.874;4.762;2023-04-25T09:29:45;21.60;99.90
19966;DHT22;10144;50.874;4.762;2023-04-25T09:34:45;21.30;98.90
19966;DHT22;10144;50.874;4.762;2023-04-25T09:37:18;19.50;99.90
19966;DHT22;10144;50.874;4.762;2023-04-25T09:39:46;17.00;99.90
19966;DHT22;10144;50.874;4.762;2023-04-25T09:42:16;15.30;99.90
19966;DHT22;10144;50.874;4.762;2023-04-25T09:44:44;13.70;99.90
19966;DHT22;10144;50.874;4.762;2023-04-25T09:47:11;12.50;99.90
19966;DHT22;10144;50.874;4.762;2023-04-25T09:49:40;11.50;99.90
19966;DHT22;10144;50.874;4.762;2023-04-25T09:52:07;11.10;99.90
19966;DHT22;10144;50.874;4.762;2023-04-25T09:54:33;11.00;99.90
19966;DHT22;10144;50.874;4.762;2023-04-25T09:57:09;10.80;99.90
19966;DHT22;10144;50.874;4.762;2023-04-25T09:59:39;10.80;99.90
19966;DHT22;10144;50.874;4.762;2023-04-25T10:02:07;10.50;99.90
19966;DHT22;10144;50.874;4.762;2023-04-25T10:04:35;10.50;99.90
19966;DHT22;10144;50.874;4.762;2023-04-25T10:07:05;10.60;99.90
19966;DHT22;10144;50.874;4.762;2023-04-25T10:09:32;10.20;99.90
19966;DHT22;10144;50.874;4.762;2023-04-25T10:12:00;10.10;99.90
19966;DHT22;10144;50.874;4.762;2023-04-25T10:14:27;10.30;99.90
19966;DHT22;10144;50.874;4.762;2023-04-25T10:16:55;11.20;99.90
19966;DHT22;10144;50.874;4.762;2023-04-25T10:19:25;13.20;99.90
19966;DHT22;10144;50.874;4.762;2023-04-25T10:24:58;17.10;99.90
19966;DHT22;10144;50.874;4.762;2023-04-25T10:27:26;18.40;99.90
19966;DHT22;10144;50.874;4.762;2023-04-25T10:30:13;18.30;99.90
19966;DHT22;10144;50.874;4.762;2023-04-25T10:32:43;18.40;99.90
19966;DHT22;10144;50.874;4.762;2023-04-25T10:35:27;19.50;97.90
19966;DHT22;10144;50.874;4.762;2023-04-25T10:38:04;20.10;96.90
19966;DHT22;10144;50.874;4.762;2023-04-25T10:40:33;21.00;93.10
19966;DHT22;10144;50.874;4.762;2023-04-25T10:46:01;19.30;93.00
19966;DHT22;10144;50.874;4.762;2023-04-25T10:48:28;18.80;94.90
19966;DHT22;10144;50.874;4.762;2023-04-25T10:51:24;17.60;95.60
19966;DHT22;10144;50.874;4.762;2023-04-25T10:54:06;16.40;98.90
19966;DHT22;10144;50.874;4.762;2023-04-25T10:56:41;15.30;99.90
19966;DHT22;10144;50.874;4.762;2023-04-25T10:59:12;15.60;99.90
19966;DHT22;10144;50.874;4.762;2023-04-25T11:04:03;18.20;98.70
19966;DHT22;10144;50.874;4.762;2023-04-25T11:06:46;20.20;97.70
19966;DHT22;10144;50.874;4.762;2023-04-25T11:09:17;20.70;92.80
19966;DHT22;10144;50.874;4.762;2023-04-25T11:11:42;20.60;93.10
19966;DHT22;10144;50.874;4.762;2023-04-25T11:14:09;20.30;93.10
19966;DHT22;10144;50.874;4.762;2023-04-25T11:16:35;19.70;92.40
19966;DHT22;10144;50.874;4.762;2023-04-25T11:19:01;17.60;95.00
19966;DHT22;10144;50.874;4.762;2023-04-25T11:21:27;16.00;98.10
19966;DHT22;10144;50.874;4.762;2023-04-25T11:23:54;15.40;99.90
19966;DHT22;10144;50.874;4.762;2023-04-25T11:26:22;14.60;99.90
19966;DHT22;10144;50.874;4.762;2023-04-25T11:28:49;13.90;99.90
19966;DHT22;10144;50.874;4.762;2023-04-25T11:31:14;13.60;99.90
19966;DHT22;10144;50.874;4.762;2023-04-25T11:33:40;13.50;99.90
19966;DHT22;10144;50.874;4.762;2023-04-25T11:36:06;13.00;99.90
19966;DHT22;10144;50.874;4.762;2023-04-25T11:38:32;12.80;99.90
19966;DHT22;10144;50.874;4.762;2023-04-25T11:40:58;12.70;99.90
19966;DHT22;10144;50.874;4.762;2023-04-25T11:43:25;12.90;99.90
19966;DHT22;10144;50.874;4.762;2023-04-25T11:45:51;12.70;99.90
19966;DHT22;10144;50.874;4.762;2023-04-25T11:48:18;12.80;99.90
19966;DHT22;10144;50.874;4.762;2023-04-25T11:50:44;13.50;99.90
19966;DHT22;10144;50.874;4.762;2023-04-25T11:53:10;13.80;99.90
19966;DHT22;10144;50.874;4.762;2023-04-25T11:55:36;13.70;99.90
19966;DHT22;10144;50.874;4.762;2023-04-25T11:58:03;13.60;99.90
19966;DHT22;10144;50.874;4.762;2023-04-25T12:00:29;14.20;99.90
19966;DHT22;10144;50.874;4.762;2023-04-25T12:02:56;15.00;99.90
19966;DHT22;10144;50.874;4.762;2023-04-25T12:05:29;14.60;99.90
19966;DHT22;10144;50.874;4.762;2023-04-25T12:07:56;14.10;99.90
19966;DHT22;10144;50.874;4.762;2023-04-25T12:10:24;13.20;99.90
19966;DHT22;10144;50.874;4.762;2023-04-25T12:12:51;12.70;99.90
19966;DHT22;10144;50.874;4.762;2023-04-25T12:15:22;12.40;99.90
19966;DHT22;10144;50.874;4.762;2023-04-25T12:17:50;12.10;99.90
19966;DHT22;10144;50.874;4.762;2023-04-25T12:20:18;11.80;99.90
19966;DHT22;10144;50.874;4.762;2023-04-25T12:22:47;11.50;99.90
19966;DHT22;10144;50.874;4.762;2023-04-25T12:28:16;11.50;99.90
19966;DHT22;10144;50.874;4.762;2023-04-25T12:31:00;11.90;99.90
19966;DHT22;10144;50.874;4.762;2023-04-25T12:33:29;12.30;99.90
19966;DHT22;10144;50.874;4.762;2023-04-25T12:35:55;13.40;99.90
19966;DHT22;10144;50.874;4.762;2023-04-25T12:38:22;14.30;99.90
19966;DHT22;10144;50.874;4.762;2023-04-25T12:40:48;16.10;99.90
19966;DHT22;10144;50.874;4.762;2023-04-25T12:43:14;16.80;99.90
19966;DHT22;10144;50.874;4.762;2023-04-25T12:45:40;16.10;99.90
19966;DHT22;10144;50.874;4.762;2023-04-25T12:48:06;16.60;99.90
19966;DHT22;10144;50.874;4.762;2023-04-25T12:50:31;16.60;99.90
19966;DHT22;10144;50.874;4.762;2023-04-25T12:52:57;15.90;99.90
19966;DHT22;10144;50.874;4.762;2023-04-25T12:55:23;14.80;99.90
19966;DHT22;10144;50.874;4.762;2023-04-25T12:57:48;13.90;99.90
19966;DHT22;10144;50.874;4.762;2023-04-25T13:00:14;14.10;99.90
19966;DHT22;10144;50.874;4.762;2023-04-25T13:02:43;14.70;99.90
19966;DHT22;10144;50.874;4.762;2023-04-25T13:05:08;15.50;99.90
19966;DHT22;10144;50.874;4.762;2023-04-25T13:07:34;15.70;99.90
19966;DHT22;10144;50.874;4.762;2023-04-25T13:10:00;15.90;99.90
19966;DHT22;10144;50.874;4.762;2023-04-25T13:12:27;15.30;99.90
19966;DHT22;10144;50.874;4.762;2023-04-25T13:14:53;14.40;99.90
19966;DHT22;10144;50.874;4.762;2023-04-25T13:17:18;13.40;99.90
19966;DHT22;10144;50.874;4.762;2023-04-25T13:19:44;12.90;99.90
19966;DHT22;10144;50.874;4.762;2023-04-25T13:22:10;12.50;99.90
19966;DHT22;10144;50.874;4.762;2023-04-25T13:24:36;12.30;99.90
19966;DHT22;10144;50.874;4.762;2023-04-25T13:27:02;12.00;99.90
19966;DHT22;10144;50.874;4.762;2023-04-25T13:29:28;11.90;99.90
19966;DHT22;10144;50.874;4.762;2023-04-25T13:31:53;11.80;99.90
19966;DHT22;10144;50.874;4.762;2023-04-25T13:34:20;11.60;99.90
19966;DHT22;10144;50.874;4.762;2023-04-25T13:36:46;11.80;99.90
19966;DHT22;10144;50.874;4.762;2023-04-25T13:39:11;12.10;99.90
19966;DHT22;10144;50.874;4.762;2023-04-25T13:41:37;12.60;99.90
19966;DHT22;10144;50.874;4.762;2023-04-25T13:44:03;12.70;99.90
19966;DHT22;10144;50.874;4.762;2023-04-25T13:46:29;12.70;99.90
19966;DHT22;10144;50.874;4.762;2023-04-25T13:48:54;12.90;99.90
19966;DHT22;10144;50.874;4.762;2023-04-25T13:51:21;13.50;99.90
19966;DHT22;10144;50.874;4.762;2023-04-25T13:53:48;13.30;99.90
19966;DHT22;10144;50.874;4.762;2023-04-25T13:56:14;13.20;99.90
19966;DHT22;10144;50.874;4.762;2023-04-25T13:58:39;13.20;99.90
19966;DHT22;10144;50.874;4.762;2023-04-25T14:01:05;13.60;99.90
19966;DHT22;10144;50.874;4.762;2023-04-25T14:03:31;13.60;99.90
19966;DHT22;10144;50.874;4.762;2023-04-25T14:05:56;13.60;99.90
19966;DHT22;10144;50.874;4.762;2023-04-25T14:08:22;13.60;99.90
19966;DHT22;10144;50.874;4.762;2023-04-25T14:10:48;13.60;99.90
19966;DHT22;10144;50.874;4.762;2023-04-25T14:13:14;13.50;99.90
19966;DHT22;10144;50.874;4.762;2023-04-25T14:15:40;13.20;99.90
19966;DHT22;10144;50.874;4.762;2023-04-25T14:18:06;12.60;99.90
19966;DHT22;10144;50.874;4.762;2023-04-25T14:20:31;12.40;99.90
19966;DHT22;10144;50.874;4.762;2023-04-25T14:22:57;12.20;99.90
19966;DHT22;10144;50.874;4.762;2023-04-25T14:25:24;11.80;99.90
19966;DHT22;10144;50.874;4.762;2023-04-25T14:27:50;11.60;99.90
19966;DHT22;10144;50.874;4.762;2023-04-25T14:30:17;11.60;99.90
19966;DHT22;10144;50.874;4.762;2023-04-25T14:32:43;11.80;99.90
19966;DHT22;10144;50.874;4.762;2023-04-25T14:35:09;11.80;99.90
19966;DHT22;10144;50.874;4.762;2023-04-25T14:37:35;11.60;99.90
19966;DHT22;10144;50.874;4.762;2023-04-25T14:40:01;11.40;99.90
19966;DHT22;10144;50.874;4.762;2023-04-25T14:42:26;11.40;99.90
19966;DHT22;10144;50.874;4.762;2023-04-25T14:44:52;11.30;99.90
19966;DHT22;10144;50.874;4.762;2023-04-25T14:47:18;11.20;99.90
19966;DHT22;10144;50.874;4.762;2023-04-25T14:49:45;11.20;99.90
19966;DHT22;10144;50.874;4.762;2023-04-25T14:52:16;11.20;99.90
19966;DHT22;10144;50.874;4.762;2023-04-25T14:54:42;11.40;99.90
19966;DHT22;10144;50.874;4.762;2023-04-25T14:57:07;11.80;99.90
19966;DHT22;10144;50.874;4.762;2023-04-25T14:59:33;11.90;99.90
19966;DHT22;10144;50.874;4.762;2023-04-25T15:01:58;11.90;99.90
19966;DHT22;10144;50.874;4.762;2023-04-25T15:04:24;12.00;99.90
19966;DHT22;10144;50.874;4.762;2023-04-25T15:06:50;12.00;99.90
19966;DHT22;10144;50.874;4.762;2023-04-25T15:09:16;12.00;99.90
19966;DHT22;10144;50.874;4.762;2023-04-25T15:11:42;11.70;99.90
19966;DHT22;10144;50.874;4.762;2023-04-25T15:14:08;11.60;99.90
19966;DHT22;10144;50.874;4.762;2023-04-25T15:16:33;11.60;99.90
19966;DHT22;10144;50.874;4.762;2023-04-25T15:18:59;11.70;99.90
19966;DHT22;10144;50.874;4.762;2023-04-25T15:21:24;11.60;99.90
19966;DHT22;10144;50.874;4.762;2023-04-25T15:23:52;11.60;99.90
19966;DHT22;10144;50.874;4.762;2023-04-25T15:26:18;11.60;99.90
19966;DHT22;10144;50.874;4.762;2023-04-25T15:28:43;11.70;99.90
19966;DHT22;10144;50.874;4.762;2023-04-25T15:31:09;11.60;99.90
19966;DHT22;10144;50.874;4.762;2023-04-25T15:33:36;11.70;99.90
19966;DHT22;10144;50.874;4.762;2023-04-25T15:36:02;11.70;99.90
19966;DHT22;10144;50.874;4.762;2023-04-25T15:38:28;11.60;99.90
19966;DHT22;10144;50.874;4.762;2023-04-25T15:40:54;11.30;99.90
19966;DHT22;10144;50.874;4.762;2023-04-25T15:43:19;11.20;99.90
19966;DHT22;10144;50.874;4.762;2023-04-25T15:45:45;11.00;99.90
19966;DHT22;10144;50.874;4.762;2023-04-25T15:48:11;10.90;99.90
19966;DHT22;10144;50.874;4.762;2023-04-25T15:50:36;10.90;99.90
19966;DHT22;10144;50.874;4.762;2023-04-25T15:53:02;10.80;99.90
19966;DHT22;10144;50.874;4.762;2023-04-25T15:55:28;10.90;99.90
19966;DHT22;10144;50.874;4.762;2023-04-25T15:57:53;10.70;99.90
19966;DHT22;10144;50.874;4.762;2023-04-25T16:00:19;10.70;99.90
19966;DHT22;10144;50.874;4.762;2023-04-25T16:02:46;10.70;99.90
19966;DHT22;10144;50.874;4.762;2023-04-25T16:05:15;10.70;99.90
19966;DHT22;10144;50.874;4.762;2023-04-25T16:07:42;10.50;99.90
19966;DHT22;10144;50.874;4.762;2023-04-25T16:10:09;10.40;99.90
19966;DHT22;10144;50.874;4.762;2023-04-25T16:12:36;10.40;99.90
19966;DHT22;10144;50.874;4.762;2023-04-25T16:15:03;10.40;99.90
19966;DHT22;10144;50.874;4.762;2023-04-25T16:17:28;10.30;99.90